sensor_id;sensor_type;location;lat;lon;timestamp;P1;durP1;ratioP1;P2;durP2;ratioP2
15482;SDS011;7843;50.330;7.312;2022-09-27T00:01:14;3.97;;;1.13;;
15482;SDS011;7843;50.330;7.312;2022-09-27T00:03:41;3.15;;;1.00;;
15482;SDS011;7843;50.330;7.312;2022-09-27T00:06:10;2.95;;;1.17;;
15482;SDS011;7843;50.330;7.312;2022-09-27T00:08:38;4.95;;;1.45;;
15482;SDS011;7843;50.330;7.312;2022-09-27T00:11:06;3.75;;;1.15;;
15482;SDS011;7843;50.330;7.312;2022-09-27T00:13:38;3.53;;;1.27;;
15482;SDS011;7843;50.330;7.312;2022-09-27T00:16:05;5.35;;;1.20;;
15482;SDS011;7843;50.330;7.312;2022-09-27T00:18:32;4.55;;;1.45;;
15482;SDS011;7843;50.330;7.312;2022-09-27T00:21:06;5.07;;;1.27;;
15482;SDS011;7843;50.330;7.312;2022-09-27T00:23:36;7.32;;;1.20;;
15482;SDS011;7843;50.330;7.312;2022-09-27T00:26:04;4.47;;;1.10;;
15482;SDS011;7843;50.330;7.312;2022-09-27T00:28:31;3.10;;;1.30;;
15482;SDS011;7843;50.330;7.312;2022-09-27T00:30:59;3.80;;;1.23;;
15482;SDS011;7843;50.330;7.312;2022-09-27T00:33:26;3.92;;;1.00;;
15482;SDS011;7843;50.330;7.312;2022-09-27T00:35:53;3.38;;;1.40;;
15482;SDS011;7843;50.330;7.312;2022-09-27T00:38:20;3.45;;;1.13;;
15482;SDS011;7843;50.330;7.312;2022-09-27T00:40:47;3.42;;;1.10;;
15482;SDS011;7843;50.330;7.312;2022-09-27T00:43:18;4.32;;;1.23;;
15482;SDS011;7843;50.330;7.312;2022-09-27T00:45:51;3.15;;;0.70;;
15482;SDS011;7843;50.330;7.312;2022-09-27T00:48:24;3.33;;;0.98;;
15482;SDS011;7843;50.330;7.312;2022-09-27T00:50:55;3.17;;;0.97;;
15482;SDS011;7843;50.330;7.312;2022-09-27T00:56:01;2.10;;;1.00;;
15482;SDS011;7843;50.330;7.312;2022-09-27T00:58:35;2.90;;;0.80;;
15482;SDS011;7843;50.330;7.312;2022-09-27T01:01:08;3.60;;;0.80;;
15482;SDS011;7843;50.330;7.312;2022-09-27T01:03:45;1.48;;;0.77;;
15482;SDS011;7843;50.330;7.312;2022-09-27T01:06:19;1.65;;;0.60;;
15482;SDS011;7843;50.330;7.312;2022-09-27T01:08:47;3.58;;;0.90;;
15482;SDS011;7843;50.330;7.312;2022-09-27T01:13:55;1.47;;;0.70;;
15482;SDS011;7843;50.330;7.312;2022-09-27T01:27:16;0.30;;;0.30;;
15482;SDS011;7843;50.330;7.312;2022-09-27T01:29:57;0.70;;;0.40;;
15482;SDS011;7843;50.330;7.312;2022-09-27T01:32:54;0.38;;;0.30;;
15482;SDS011;7843;50.330;7.312;2022-09-27T01:35:50;0.30;;;0.30;;
15482;SDS011;7843;50.330;7.312;2022-09-27T01:38:32;2.60;;;0.30;;
15482;SDS011;7843;50.330;7.312;2022-09-27T01:44:36;0.30;;;0.20;;
15482;SDS011;7843;50.330;7.312;2022-09-27T01:47:22;0.20;;;0.20;;
15482;SDS011;7843;50.330;7.312;2022-09-27T01:50:04;0.38;;;0.10;;
15482;SDS011;7843;50.330;7.312;2022-09-27T01:52:37;0.30;;;0.20;;
15482;SDS011;7843;50.330;7.312;2022-09-27T01:55:09;0.80;;;0.20;;
15482;SDS011;7843;50.330;7.312;2022-09-27T01:57:39;1.35;;;0.20;;
15482;SDS011;7843;50.330;7.312;2022-09-27T02:00:09;0.20;;;0.20;;
15482;SDS011;7843;50.330;7.312;2022-09-27T02:02:39;0.83;;;0.20;;
15482;SDS011;7843;50.330;7.312;2022-09-27T02:05:13;0.60;;;0.20;;
15482;SDS011;7843;50.330;7.312;2022-09-27T02:07:47;0.32;;;0.17;;
15482;SDS011;7843;50.330;7.312;2022-09-27T02:10:26;1.30;;;0.20;;
15482;SDS011;7843;50.330;7.312;2022-09-27T02:13:14;0.30;;;0.20;;
15482;SDS011;7843;50.330;7.312;2022-09-27T02:16:06;4.95;;;0.50;;
15482;SDS011;7843;50.330;7.312;2022-09-27T02:18:49;0.20;;;0.20;;
15482;SDS011;7843;50.330;7.312;2022-09-27T02:21:23;0.30;;;0.20;;
15482;SDS011;7843;50.330;7.312;2022-09-27T02:23:57;0.30;;;0.20;;
15482;SDS011;7843;50.330;7.312;2022-09-27T02:26:38;1.90;;;0.20;;
15482;SDS011;7843;50.330;7.312;2022-09-27T02:29:09;2.30;;;0.30;;
15482;SDS011;7843;50.330;7.312;2022-09-27T02:31:49;0.22;;;0.20;;
15482;SDS011;7843;50.330;7.312;2022-09-27T02:34:23;1.07;;;0.50;;
15482;SDS011;7843;50.330;7.312;2022-09-27T02:36:53;0.88;;;0.50;;
15482;SDS011;7843;50.330;7.312;2022-09-27T02:39:20;1.40;;;0.38;;
15482;SDS011;7843;50.330;7.312;2022-09-27T02:41:47;0.40;;;0.20;;
15482;SDS011;7843;50.330;7.312;2022-09-27T02:44:14;0.75;;;0.25;;
15482;SDS011;7843;50.330;7.312;2022-09-27T02:46:46;0.75;;;0.40;;
15482;SDS011;7843;50.330;7.312;2022-09-27T02:52:08;2.15;;;0.50;;
15482;SDS011;7843;50.330;7.312;2022-09-27T02:54:46;1.98;;;0.30;;
15482;SDS011;7843;50.330;7.312;2022-09-27T03:00:24;1.27;;;0.30;;
15482;SDS011;7843;50.330;7.312;2022-09-27T03:03:16;1.50;;;0.30;;
15482;SDS011;7843;50.330;7.312;2022-09-27T03:05:51;1.10;;;0.20;;
15482;SDS011;7843;50.330;7.312;2022-09-27T03:08:23;0.30;;;0.20;;
15482;SDS011;7843;50.330;7.312;2022-09-27T03:10:50;0.28;;;0.20;;
15482;SDS011;7843;50.330;7.312;2022-09-27T03:13:17;0.45;;;0.28;;
15482;SDS011;7843;50.330;7.312;2022-09-27T03:15:44;0.80;;;0.20;;
15482;SDS011;7843;50.330;7.312;2022-09-27T03:18:11;0.80;;;0.25;;
15482;SDS011;7843;50.330;7.312;2022-09-27T03:20:37;0.30;;;0.20;;
15482;SDS011;7843;50.330;7.312;2022-09-27T03:23:04;0.95;;;0.25;;
15482;SDS011;7843;50.330;7.312;2022-09-27T03:25:30;1.20;;;0.30;;
15482;SDS011;7843;50.330;7.312;2022-09-27T03:27:57;0.20;;;0.20;;
15482;SDS011;7843;50.330;7.312;2022-09-27T03:30:24;1.30;;;0.22;;
15482;SDS011;7843;50.330;7.312;2022-09-27T03:32:51;2.80;;;0.40;;
15482;SDS011;7843;50.330;7.312;2022-09-27T03:35:17;0.13;;;0.13;;
15482;SDS011;7843;50.330;7.312;2022-09-27T03:37:44;0.22;;;0.20;;
15482;SDS011;7843;50.330;7.312;2022-09-27T03:40:12;0.50;;;0.20;;
15482;SDS011;7843;50.330;7.312;2022-09-27T03:42:39;0.83;;;0.30;;
15482;SDS011;7843;50.330;7.312;2022-09-27T03:45:07;0.20;;;0.20;;
15482;SDS011;7843;50.330;7.312;2022-09-27T03:47:34;0.30;;;0.30;;
15482;SDS011;7843;50.330;7.312;2022-09-27T03:50:04;0.32;;;0.30;;
15482;SDS011;7843;50.330;7.312;2022-09-27T03:52:31;1.48;;;0.35;;
15482;SDS011;7843;50.330;7.312;2022-09-27T03:54:58;0.85;;;0.40;;
15482;SDS011;7843;50.330;7.312;2022-09-27T03:57:27;0.28;;;0.20;;
15482;SDS011;7843;50.330;7.312;2022-09-27T03:59:55;0.60;;;0.40;;
15482;SDS011;7843;50.330;7.312;2022-09-27T04:02:25;1.00;;;0.30;;
15482;SDS011;7843;50.330;7.312;2022-09-27T04:04:53;1.42;;;0.40;;
15482;SDS011;7843;50.330;7.312;2022-09-27T04:07:19;1.15;;;0.47;;
15482;SDS011;7843;50.330;7.312;2022-09-27T04:09:46;0.88;;;0.30;;
15482;SDS011;7843;50.330;7.312;2022-09-27T04:12:12;0.63;;;0.30;;
15482;SDS011;7843;50.330;7.312;2022-09-27T04:14:39;0.98;;;0.20;;
15482;SDS011;7843;50.330;7.312;2022-09-27T04:17:06;2.10;;;0.30;;
15482;SDS011;7843;50.330;7.312;2022-09-27T04:19:33;0.35;;;0.25;;
15482;SDS011;7843;50.330;7.312;2022-09-27T04:22:00;3.55;;;0.55;;
15482;SDS011;7843;50.330;7.312;2022-09-27T04:24:26;0.38;;;0.20;;
15482;SDS011;7843;50.330;7.312;2022-09-27T04:26:53;0.20;;;0.20;;
15482;SDS011;7843;50.330;7.312;2022-09-27T04:29:20;1.23;;;0.30;;
15482;SDS011;7843;50.330;7.312;2022-09-27T04:31:47;0.40;;;0.20;;
15482;SDS011;7843;50.330;7.312;2022-09-27T04:34:13;0.80;;;0.40;;
15482;SDS011;7843;50.330;7.312;2022-09-27T04:36:40;0.63;;;0.30;;
15482;SDS011;7843;50.330;7.312;2022-09-27T04:39:08;0.17;;;0.17;;
15482;SDS011;7843;50.330;7.312;2022-09-27T04:41:35;0.10;;;0.10;;
15482;SDS011;7843;50.330;7.312;2022-09-27T04:44:02;2.08;;;0.25;;
15482;SDS011;7843;50.330;7.312;2022-09-27T04:46:30;0.20;;;0.20;;
15482;SDS011;7843;50.330;7.312;2022-09-27T04:48:57;0.28;;;0.28;;
15482;SDS011;7843;50.330;7.312;2022-09-27T04:51:25;2.20;;;0.35;;
15482;SDS011;7843;50.330;7.312;2022-09-27T04:53:52;0.68;;;0.20;;
15482;SDS011;7843;50.330;7.312;2022-09-27T04:56:20;0.30;;;0.30;;
15482;SDS011;7843;50.330;7.312;2022-09-27T04:58:47;0.40;;;0.20;;
15482;SDS011;7843;50.330;7.312;2022-09-27T05:01:13;0.30;;;0.20;;
15482;SDS011;7843;50.330;7.312;2022-09-27T05:03:40;0.45;;;0.20;;
15482;SDS011;7843;50.330;7.312;2022-09-27T05:06:07;0.65;;;0.25;;
15482;SDS011;7843;50.330;7.312;2022-09-27T05:08:33;0.67;;;0.20;;
15482;SDS011;7843;50.330;7.312;2022-09-27T05:11:00;0.30;;;0.20;;
15482;SDS011;7843;50.330;7.312;2022-09-27T05:13:27;0.50;;;0.30;;
15482;SDS011;7843;50.330;7.312;2022-09-27T05:15:53;0.68;;;0.50;;
15482;SDS011;7843;50.330;7.312;2022-09-27T05:18:20;0.52;;;0.10;;
15482;SDS011;7843;50.330;7.312;2022-09-27T05:20:47;0.50;;;0.22;;
15482;SDS011;7843;50.330;7.312;2022-09-27T05:23:13;2.30;;;0.20;;
15482;SDS011;7843;50.330;7.312;2022-09-27T05:25:40;0.43;;;0.30;;
15482;SDS011;7843;50.330;7.312;2022-09-27T05:28:08;0.38;;;0.20;;
15482;SDS011;7843;50.330;7.312;2022-09-27T05:30:35;0.60;;;0.40;;
15482;SDS011;7843;50.330;7.312;2022-09-27T05:33:01;1.10;;;0.40;;
15482;SDS011;7843;50.330;7.312;2022-09-27T05:35:28;0.50;;;0.50;;
15482;SDS011;7843;50.330;7.312;2022-09-27T05:37:56;1.10;;;0.52;;
15482;SDS011;7843;50.330;7.312;2022-09-27T05:40:23;0.40;;;0.30;;
15482;SDS011;7843;50.330;7.312;2022-09-27T05:43:07;0.68;;;0.35;;
15482;SDS011;7843;50.330;7.312;2022-09-27T05:45:34;1.33;;;0.35;;
15482;SDS011;7843;50.330;7.312;2022-09-27T05:48:01;0.68;;;0.30;;
15482;SDS011;7843;50.330;7.312;2022-09-27T05:50:28;0.50;;;0.40;;
15482;SDS011;7843;50.330;7.312;2022-09-27T05:52:55;1.00;;;0.40;;
15482;SDS011;7843;50.330;7.312;2022-09-27T05:55:22;2.00;;;0.20;;
15482;SDS011;7843;50.330;7.312;2022-09-27T05:57:52;0.63;;;0.35;;
15482;SDS011;7843;50.330;7.312;2022-09-27T06:00:22;0.30;;;0.30;;
15482;SDS011;7843;50.330;7.312;2022-09-27T06:02:57;1.20;;;0.20;;
15482;SDS011;7843;50.330;7.312;2022-09-27T06:05:26;1.55;;;0.30;;
15482;SDS011;7843;50.330;7.312;2022-09-27T06:08:06;1.10;;;0.30;;
15482;SDS011;7843;50.330;7.312;2022-09-27T06:10:37;0.30;;;0.30;;
15482;SDS011;7843;50.330;7.312;2022-09-27T06:13:06;0.22;;;0.20;;
15482;SDS011;7843;50.330;7.312;2022-09-27T06:15:36;1.45;;;0.50;;
15482;SDS011;7843;50.330;7.312;2022-09-27T06:18:06;1.30;;;0.35;;
15482;SDS011;7843;50.330;7.312;2022-09-27T06:20:36;4.50;;;0.33;;
15482;SDS011;7843;50.330;7.312;2022-09-27T06:23:05;1.42;;;0.40;;
15482;SDS011;7843;50.330;7.312;2022-09-27T06:25:37;1.35;;;0.40;;
15482;SDS011;7843;50.330;7.312;2022-09-27T06:28:05;1.20;;;0.30;;
15482;SDS011;7843;50.330;7.312;2022-09-27T06:30:31;4.78;;;0.50;;
15482;SDS011;7843;50.330;7.312;2022-09-27T06:32:59;1.38;;;0.45;;
15482;SDS011;7843;50.330;7.312;2022-09-27T06:35:27;2.03;;;0.40;;
15482;SDS011;7843;50.330;7.312;2022-09-27T06:37:54;1.15;;;0.50;;
15482;SDS011;7843;50.330;7.312;2022-09-27T06:40:22;1.63;;;0.40;;
15482;SDS011;7843;50.330;7.312;2022-09-27T06:42:52;0.43;;;0.30;;
15482;SDS011;7843;50.330;7.312;2022-09-27T06:45:19;1.83;;;0.40;;
15482;SDS011;7843;50.330;7.312;2022-09-27T06:47:45;0.40;;;0.35;;
15482;SDS011;7843;50.330;7.312;2022-09-27T06:50:12;1.00;;;0.50;;
15482;SDS011;7843;50.330;7.312;2022-09-27T06:52:45;2.23;;;0.60;;
15482;SDS011;7843;50.330;7.312;2022-09-27T06:55:14;1.92;;;0.68;;
15482;SDS011;7843;50.330;7.312;2022-09-27T06:57:41;1.67;;;0.63;;
15482;SDS011;7843;50.330;7.312;2022-09-27T07:00:27;2.30;;;0.50;;
15482;SDS011;7843;50.330;7.312;2022-09-27T07:02:55;1.85;;;0.80;;
15482;SDS011;7843;50.330;7.312;2022-09-27T07:05:27;0.95;;;0.50;;
15482;SDS011;7843;50.330;7.312;2022-09-27T07:07:57;1.20;;;0.70;;
15482;SDS011;7843;50.330;7.312;2022-09-27T07:10:24;1.40;;;0.60;;
15482;SDS011;7843;50.330;7.312;2022-09-27T07:12:52;2.10;;;0.60;;
15482;SDS011;7843;50.330;7.312;2022-09-27T07:15:20;2.17;;;0.73;;
15482;SDS011;7843;50.330;7.312;2022-09-27T07:17:54;1.40;;;0.68;;
15482;SDS011;7843;50.330;7.312;2022-09-27T07:20:23;0.90;;;0.50;;
15482;SDS011;7843;50.330;7.312;2022-09-27T07:22:51;0.63;;;0.60;;
15482;SDS011;7843;50.330;7.312;2022-09-27T07:25:18;1.10;;;0.50;;
15482;SDS011;7843;50.330;7.312;2022-09-27T07:27:45;1.92;;;0.63;;
15482;SDS011;7843;50.330;7.312;2022-09-27T07:30:11;1.40;;;0.70;;
15482;SDS011;7843;50.330;7.312;2022-09-27T07:32:39;1.77;;;0.60;;
15482;SDS011;7843;50.330;7.312;2022-09-27T07:35:06;2.05;;;0.50;;
15482;SDS011;7843;50.330;7.312;2022-09-27T07:37:34;1.98;;;0.60;;
15482;SDS011;7843;50.330;7.312;2022-09-27T07:40:03;0.80;;;0.63;;
15482;SDS011;7843;50.330;7.312;2022-09-27T07:42:34;1.43;;;0.37;;
15482;SDS011;7843;50.330;7.312;2022-09-27T07:45:07;0.75;;;0.40;;
15482;SDS011;7843;50.330;7.312;2022-09-27T07:47:34;0.50;;;0.50;;
15482;SDS011;7843;50.330;7.312;2022-09-27T07:50:07;1.02;;;0.50;;
15482;SDS011;7843;50.330;7.312;2022-09-27T07:52:41;1.13;;;0.30;;
15482;SDS011;7843;50.330;7.312;2022-09-27T07:55:09;0.93;;;0.55;;
15482;SDS011;7843;50.330;7.312;2022-09-27T07:57:37;1.30;;;0.70;;
15482;SDS011;7843;50.330;7.312;2022-09-27T08:00:05;1.40;;;0.40;;
15482;SDS011;7843;50.330;7.312;2022-09-27T08:02:33;2.03;;;0.40;;
15482;SDS011;7843;50.330;7.312;2022-09-27T08:05:00;1.35;;;0.43;;
15482;SDS011;7843;50.330;7.312;2022-09-27T08:07:27;0.90;;;0.40;;
15482;SDS011;7843;50.330;7.312;2022-09-27T08:09:55;0.73;;;0.40;;
15482;SDS011;7843;50.330;7.312;2022-09-27T08:12:21;1.10;;;0.47;;
15482;SDS011;7843;50.330;7.312;2022-09-27T08:14:48;2.30;;;0.40;;
15482;SDS011;7843;50.330;7.312;2022-09-27T08:17:15;0.40;;;0.40;;
15482;SDS011;7843;50.330;7.312;2022-09-27T08:19:42;0.20;;;0.20;;
15482;SDS011;7843;50.330;7.312;2022-09-27T08:22:10;2.22;;;0.50;;
15482;SDS011;7843;50.330;7.312;2022-09-27T08:24:40;1.38;;;0.50;;
15482;SDS011;7843;50.330;7.312;2022-09-27T08:27:07;1.00;;;0.30;;
15482;SDS011;7843;50.330;7.312;2022-09-27T08:29:36;3.17;;;0.40;;
15482;SDS011;7843;50.330;7.312;2022-09-27T08:32:07;1.50;;;0.40;;
15482;SDS011;7843;50.330;7.312;2022-09-27T08:34:34;0.63;;;0.30;;
15482;SDS011;7843;50.330;7.312;2022-09-27T08:37:02;0.30;;;0.20;;
15482;SDS011;7843;50.330;7.312;2022-09-27T08:39:29;1.13;;;0.50;;
15482;SDS011;7843;50.330;7.312;2022-09-27T08:44:45;1.00;;;0.20;;
15482;SDS011;7843;50.330;7.312;2022-09-27T08:52:56;1.00;;;0.40;;
15482;SDS011;7843;50.330;7.312;2022-09-27T08:55:50;1.92;;;0.30;;
15482;SDS011;7843;50.330;7.312;2022-09-27T08:58:30;0.60;;;0.30;;
15482;SDS011;7843;50.330;7.312;2022-09-27T09:01:01;6.43;;;3.00;;
15482;SDS011;7843;50.330;7.312;2022-09-27T09:03:35;2.22;;;0.60;;
15482;SDS011;7843;50.330;7.312;2022-09-27T09:17:09;1.15;;;0.43;;
15482;SDS011;7843;50.330;7.312;2022-09-27T09:20:15;1.17;;;0.50;;
15482;SDS011;7843;50.330;7.312;2022-09-27T09:25:45;0.88;;;0.32;;
15482;SDS011;7843;50.330;7.312;2022-09-27T09:34:11;1.67;;;0.40;;
15482;SDS011;7843;50.330;7.312;2022-09-27T09:36:59;0.60;;;0.40;;
15482;SDS011;7843;50.330;7.312;2022-09-27T09:39:37;0.60;;;0.30;;
15482;SDS011;7843;50.330;7.312;2022-09-27T09:42:13;0.98;;;0.22;;
15482;SDS011;7843;50.330;7.312;2022-09-27T09:45:01;1.30;;;0.38;;
15482;SDS011;7843;50.330;7.312;2022-09-27T09:47:35;0.83;;;0.40;;
15482;SDS011;7843;50.330;7.312;2022-09-27T09:55:50;0.52;;;0.30;;
15482;SDS011;7843;50.330;7.312;2022-09-27T09:58:25;0.63;;;0.40;;
15482;SDS011;7843;50.330;7.312;2022-09-27T10:00:57;1.00;;;0.50;;
15482;SDS011;7843;50.330;7.312;2022-09-27T10:03:33;2.67;;;0.47;;
15482;SDS011;7843;50.330;7.312;2022-09-27T10:06:00;1.30;;;0.50;;
15482;SDS011;7843;50.330;7.312;2022-09-27T10:08:27;0.80;;;0.40;;
15482;SDS011;7843;50.330;7.312;2022-09-27T10:10:53;1.30;;;0.30;;
15482;SDS011;7843;50.330;7.312;2022-09-27T10:13:20;0.70;;;0.40;;
15482;SDS011;7843;50.330;7.312;2022-09-27T10:15:56;1.17;;;0.47;;
15482;SDS011;7843;50.330;7.312;2022-09-27T10:18:28;0.40;;;0.40;;
15482;SDS011;7843;50.330;7.312;2022-09-27T10:20:56;1.50;;;0.40;;
15482;SDS011;7843;50.330;7.312;2022-09-27T10:23:26;1.05;;;0.43;;
15482;SDS011;7843;50.330;7.312;2022-09-27T10:25:54;1.48;;;0.50;;
15482;SDS011;7843;50.330;7.312;2022-09-27T10:28:36;1.37;;;0.60;;
15482;SDS011;7843;50.330;7.312;2022-09-27T10:31:10;0.75;;;0.35;;
15482;SDS011;7843;50.330;7.312;2022-09-27T10:33:50;1.25;;;0.60;;
15482;SDS011;7843;50.330;7.312;2022-09-27T10:36:23;0.30;;;0.30;;
15482;SDS011;7843;50.330;7.312;2022-09-27T10:38:54;0.53;;;0.33;;
15482;SDS011;7843;50.330;7.312;2022-09-27T10:41:33;1.05;;;0.55;;
15482;SDS011;7843;50.330;7.312;2022-09-27T10:44:18;0.40;;;0.40;;
15482;SDS011;7843;50.330;7.312;2022-09-27T10:47:04;0.37;;;0.30;;
15482;SDS011;7843;50.330;7.312;2022-09-27T10:49:33;0.97;;;0.40;;
15482;SDS011;7843;50.330;7.312;2022-09-27T10:52:05;0.63;;;0.40;;
15482;SDS011;7843;50.330;7.312;2022-09-27T10:54:39;0.30;;;0.30;;
15482;SDS011;7843;50.330;7.312;2022-09-27T10:59:43;0.90;;;0.30;;
15482;SDS011;7843;50.330;7.312;2022-09-27T11:02:20;0.77;;;0.50;;
15482;SDS011;7843;50.330;7.312;2022-09-27T11:07:49;0.50;;;0.30;;
15482;SDS011;7843;50.330;7.312;2022-09-27T11:10:29;1.60;;;0.30;;
15482;SDS011;7843;50.330;7.312;2022-09-27T11:15:49;0.63;;;0.30;;
15482;SDS011;7843;50.330;7.312;2022-09-27T11:18:50;1.17;;;0.40;;
15482;SDS011;7843;50.330;7.312;2022-09-27T11:30:18;0.88;;;0.43;;
15482;SDS011;7843;50.330;7.312;2022-09-27T11:36:03;0.90;;;0.40;;
15482;SDS011;7843;50.330;7.312;2022-09-27T11:38:45;1.83;;;0.43;;
15482;SDS011;7843;50.330;7.312;2022-09-27T11:41:45;0.80;;;0.50;;
15482;SDS011;7843;50.330;7.312;2022-09-27T12:06:11;0.30;;;0.30;;
15482;SDS011;7843;50.330;7.312;2022-09-27T12:17:24;1.20;;;0.40;;
15482;SDS011;7843;50.330;7.312;2022-09-27T12:19:59;0.85;;;0.50;;
15482;SDS011;7843;50.330;7.312;2022-09-27T12:22:44;2.50;;;0.47;;
15482;SDS011;7843;50.330;7.312;2022-09-27T12:25:30;1.50;;;0.50;;
15482;SDS011;7843;50.330;7.312;2022-09-27T12:30:39;2.53;;;0.60;;
15482;SDS011;7843;50.330;7.312;2022-09-27T12:33:31;2.05;;;0.50;;
15482;SDS011;7843;50.330;7.312;2022-09-27T12:36:17;0.73;;;0.43;;
15482;SDS011;7843;50.330;7.312;2022-09-27T12:38:55;0.47;;;0.38;;
15482;SDS011;7843;50.330;7.312;2022-09-27T12:41:43;1.25;;;0.60;;
15482;SDS011;7843;50.330;7.312;2022-09-27T12:44:18;1.17;;;0.40;;
15482;SDS011;7843;50.330;7.312;2022-09-27T12:49:37;0.93;;;0.50;;
15482;SDS011;7843;50.330;7.312;2022-09-27T12:52:17;1.35;;;0.50;;
15482;SDS011;7843;50.330;7.312;2022-09-27T12:57:49;3.10;;;0.60;;
15482;SDS011;7843;50.330;7.312;2022-09-27T13:00:57;1.55;;;0.43;;
15482;SDS011;7843;50.330;7.312;2022-09-27T13:03:57;2.00;;;0.50;;
15482;SDS011;7843;50.330;7.312;2022-09-27T13:12:23;0.60;;;0.40;;
15482;SDS011;7843;50.330;7.312;2022-09-27T13:17:31;1.95;;;0.60;;
15482;SDS011;7843;50.330;7.312;2022-09-27T13:25:58;1.85;;;0.50;;
15482;SDS011;7843;50.330;7.312;2022-09-27T13:30:59;1.83;;;0.55;;
15482;SDS011;7843;50.330;7.312;2022-09-27T13:36:23;0.65;;;0.50;;
15482;SDS011;7843;50.330;7.312;2022-09-27T13:47:19;1.75;;;0.73;;
15482;SDS011;7843;50.330;7.312;2022-09-27T13:50:03;0.90;;;0.50;;
15482;SDS011;7843;50.330;7.312;2022-09-27T13:58:28;1.40;;;0.70;;
15482;SDS011;7843;50.330;7.312;2022-09-27T14:01:21;1.15;;;0.50;;
15482;SDS011;7843;50.330;7.312;2022-09-27T14:03:55;1.92;;;0.50;;
15482;SDS011;7843;50.330;7.312;2022-09-27T14:06:33;0.70;;;0.40;;
15482;SDS011;7843;50.330;7.312;2022-09-27T14:09:07;1.00;;;0.40;;
15482;SDS011;7843;50.330;7.312;2022-09-27T14:11:55;0.95;;;0.40;;
15482;SDS011;7843;50.330;7.312;2022-09-27T14:14:30;2.92;;;0.50;;
15482;SDS011;7843;50.330;7.312;2022-09-27T14:16:58;1.00;;;0.70;;
15482;SDS011;7843;50.330;7.312;2022-09-27T14:19:26;0.70;;;0.40;;
15482;SDS011;7843;50.330;7.312;2022-09-27T14:21:53;0.70;;;0.50;;
15482;SDS011;7843;50.330;7.312;2022-09-27T14:24:31;0.85;;;0.50;;
15482;SDS011;7843;50.330;7.312;2022-09-27T14:29:51;0.70;;;0.45;;
15482;SDS011;7843;50.330;7.312;2022-09-27T14:32:20;0.97;;;0.40;;
15482;SDS011;7843;50.330;7.312;2022-09-27T14:38:12;1.02;;;0.40;;
15482;SDS011;7843;50.330;7.312;2022-09-27T14:40:59;0.98;;;0.60;;
15482;SDS011;7843;50.330;7.312;2022-09-27T14:43:27;0.93;;;0.50;;
15482;SDS011;7843;50.330;7.312;2022-09-27T14:45:58;0.80;;;0.40;;
15482;SDS011;7843;50.330;7.312;2022-09-27T14:50:59;0.30;;;0.30;;
15482;SDS011;7843;50.330;7.312;2022-09-27T14:53:33;0.52;;;0.40;;
15482;SDS011;7843;50.330;7.312;2022-09-27T14:56:02;0.40;;;0.35;;
15482;SDS011;7843;50.330;7.312;2022-09-27T14:58:29;0.53;;;0.30;;
15482;SDS011;7843;50.330;7.312;2022-09-27T15:01:14;0.82;;;0.30;;
15482;SDS011;7843;50.330;7.312;2022-09-27T15:03:43;0.90;;;0.30;;
15482;SDS011;7843;50.330;7.312;2022-09-27T15:06:11;0.75;;;0.50;;
15482;SDS011;7843;50.330;7.312;2022-09-27T15:08:38;1.48;;;0.40;;
15482;SDS011;7843;50.330;7.312;2022-09-27T15:11:05;0.70;;;0.30;;
15482;SDS011;7843;50.330;7.312;2022-09-27T15:13:33;1.60;;;0.35;;
15482;SDS011;7843;50.330;7.312;2022-09-27T15:16:09;0.68;;;0.40;;
15482;SDS011;7843;50.330;7.312;2022-09-27T15:18:45;1.63;;;0.70;;
15482;SDS011;7843;50.330;7.312;2022-09-27T15:21:26;0.40;;;0.40;;
15482;SDS011;7843;50.330;7.312;2022-09-27T15:23:54;1.42;;;0.63;;
15482;SDS011;7843;50.330;7.312;2022-09-27T15:26:22;0.80;;;0.50;;
15482;SDS011;7843;50.330;7.312;2022-09-27T15:29:23;1.17;;;0.43;;
15482;SDS011;7843;50.330;7.312;2022-09-27T15:31:58;0.63;;;0.43;;
15482;SDS011;7843;50.330;7.312;2022-09-27T15:34:25;1.30;;;0.30;;
15482;SDS011;7843;50.330;7.312;2022-09-27T15:36:56;0.70;;;0.40;;
15482;SDS011;7843;50.330;7.312;2022-09-27T15:39:32;1.92;;;0.40;;
15482;SDS011;7843;50.330;7.312;2022-09-27T15:55:11;3.30;;;0.40;;
15482;SDS011;7843;50.330;7.312;2022-09-27T15:57:39;0.50;;;0.30;;
15482;SDS011;7843;50.330;7.312;2022-09-27T16:00:14;1.70;;;0.50;;
15482;SDS011;7843;50.330;7.312;2022-09-27T16:02:43;2.90;;;0.60;;
15482;SDS011;7843;50.330;7.312;2022-09-27T16:05:11;1.30;;;0.57;;
15482;SDS011;7843;50.330;7.312;2022-09-27T16:07:38;2.30;;;0.68;;
15482;SDS011;7843;50.330;7.312;2022-09-27T16:10:49;3.55;;;0.65;;
15482;SDS011;7843;50.330;7.312;2022-09-27T16:13:00;2.35;;;0.60;;
15482;SDS011;7843;50.330;7.312;2022-09-27T16:15:27;0.82;;;0.60;;
15482;SDS011;7843;50.330;7.312;2022-09-27T16:17:53;4.17;;;0.57;;
15482;SDS011;7843;50.330;7.312;2022-09-27T16:20:22;3.45;;;0.60;;
15482;SDS011;7843;50.330;7.312;2022-09-27T16:22:54;2.80;;;0.40;;
15482;SDS011;7843;50.330;7.312;2022-09-27T16:25:22;0.82;;;0.40;;
15482;SDS011;7843;50.330;7.312;2022-09-27T16:27:49;1.50;;;0.40;;
15482;SDS011;7843;50.330;7.312;2022-09-27T16:30:17;0.80;;;0.40;;
15482;SDS011;7843;50.330;7.312;2022-09-27T16:32:46;0.95;;;0.40;;
15482;SDS011;7843;50.330;7.312;2022-09-27T16:35:14;1.73;;;0.60;;
15482;SDS011;7843;50.330;7.312;2022-09-27T16:37:42;1.88;;;0.50;;
15482;SDS011;7843;50.330;7.312;2022-09-27T16:40:09;1.02;;;0.60;;
15482;SDS011;7843;50.330;7.312;2022-09-27T16:42:37;1.38;;;0.40;;
15482;SDS011;7843;50.330;7.312;2022-09-27T16:45:04;1.38;;;0.38;;
15482;SDS011;7843;50.330;7.312;2022-09-27T16:47:35;1.10;;;0.50;;
15482;SDS011;7843;50.330;7.312;2022-09-27T16:50:03;0.90;;;0.50;;
15482;SDS011;7843;50.330;7.312;2022-09-27T16:52:48;0.80;;;0.50;;
15482;SDS011;7843;50.330;7.312;2022-09-27T16:55:17;1.13;;;0.50;;
15482;SDS011;7843;50.330;7.312;2022-09-27T16:57:46;1.90;;;0.50;;
15482;SDS011;7843;50.330;7.312;2022-09-27T17:00:13;2.20;;;0.52;;
15482;SDS011;7843;50.330;7.312;2022-09-27T17:02:41;2.97;;;0.60;;
15482;SDS011;7843;50.330;7.312;2022-09-27T17:05:12;2.23;;;0.60;;
15482;SDS011;7843;50.330;7.312;2022-09-27T17:07:48;3.97;;;1.27;;
15482;SDS011;7843;50.330;7.312;2022-09-27T17:10:15;0.90;;;0.47;;
15482;SDS011;7843;50.330;7.312;2022-09-27T17:12:43;0.70;;;0.40;;
15482;SDS011;7843;50.330;7.312;2022-09-27T17:15:09;1.23;;;0.60;;
15482;SDS011;7843;50.330;7.312;2022-09-27T17:17:36;1.80;;;0.50;;
15482;SDS011;7843;50.330;7.312;2022-09-27T17:20:03;1.20;;;0.50;;
15482;SDS011;7843;50.330;7.312;2022-09-27T17:22:30;2.30;;;0.80;;
15482;SDS011;7843;50.330;7.312;2022-09-27T17:24:57;3.25;;;0.70;;
15482;SDS011;7843;50.330;7.312;2022-09-27T17:27:25;2.13;;;0.57;;
15482;SDS011;7843;50.330;7.312;2022-09-27T17:29:53;1.77;;;1.10;;
15482;SDS011;7843;50.330;7.312;2022-09-27T17:32:20;3.53;;;0.90;;
15482;SDS011;7843;50.330;7.312;2022-09-27T17:34:50;3.00;;;1.40;;
15482;SDS011;7843;50.330;7.312;2022-09-27T17:37:17;1.88;;;1.00;;
15482;SDS011;7843;50.330;7.312;2022-09-27T17:39:44;1.50;;;1.20;;
15482;SDS011;7843;50.330;7.312;2022-09-27T17:42:11;4.35;;;1.17;;
15482;SDS011;7843;50.330;7.312;2022-09-27T17:44:38;1.47;;;0.80;;
15482;SDS011;7843;50.330;7.312;2022-09-27T17:47:04;1.80;;;0.90;;
15482;SDS011;7843;50.330;7.312;2022-09-27T17:49:50;3.95;;;1.15;;
15482;SDS011;7843;50.330;7.312;2022-09-27T17:52:36;1.83;;;0.82;;
15482;SDS011;7843;50.330;7.312;2022-09-27T17:55:03;1.33;;;0.90;;
15482;SDS011;7843;50.330;7.312;2022-09-27T17:57:30;1.40;;;0.93;;
15482;SDS011;7843;50.330;7.312;2022-09-27T17:59:56;1.88;;;1.10;;
15482;SDS011;7843;50.330;7.312;2022-09-27T18:02:23;3.50;;;1.10;;
15482;SDS011;7843;50.330;7.312;2022-09-27T18:04:51;2.60;;;1.33;;
15482;SDS011;7843;50.330;7.312;2022-09-27T18:07:17;3.05;;;1.40;;
15482;SDS011;7843;50.330;7.312;2022-09-27T18:09:44;1.63;;;0.90;;
15482;SDS011;7843;50.330;7.312;2022-09-27T18:12:11;1.88;;;1.00;;
15482;SDS011;7843;50.330;7.312;2022-09-27T18:14:38;1.95;;;1.00;;
15482;SDS011;7843;50.330;7.312;2022-09-27T18:17:05;1.92;;;1.10;;
15482;SDS011;7843;50.330;7.312;2022-09-27T18:19:32;3.88;;;1.50;;
15482;SDS011;7843;50.330;7.312;2022-09-27T18:21:58;2.90;;;1.30;;